• Join FlightAware (Why Join?)
  • Login
  • US Flag 
10:14PM EDT


 

Airport Tracker/Info


-or-


 

Live Flight TrackerFlight Track Log ✈ CSJ405 ✈ 03-May-2013 ✈ CYHM - CYMX

Flight Track Log - Related Links

Times and Time Zones

All times are in EDT time to prevent confusion due to time zone crossing. See the CSJ405 flight status page for this flight to view local times or setup timezone preferences in your user account.

Time Position Orientation Groundspeed Altitude Reporting Facility
EDT Latitude Longitude Course Direction KTS MPH feet Rate Location/Type
01:07AM 43.1667 -79.9000 360° North 20 23 800  Level Toronto Center
01:10AM 43.1667 -79.9000 90° East 80 92 1,200 240 Climbing Toronto Center
01:11AM 43.1667 -79.8667 90° East 90 104 1,800 600 Climbing Toronto Center
01:12AM 43.1500 -79.8333 124° Southeast 90 104 2,500 660 Climbing Toronto Center
01:13AM 43.1500 -79.8000 90° East 90 104 3,200 600 Climbing Toronto Center
01:14AM 43.1500 -79.7667 90° East 90 104 3,800 180 Climbing Toronto Center
01:15AM 43.1833 -79.7167 48° Northeast 100 115 3,600 600 Descending Toronto Center
01:16AM 43.1833 -79.7000 90° East 100 115 5,100 1,080 Climbing Toronto Center
01:17AM 43.2000 -79.6500 65° Northeast 100 115 5,800 600 Climbing Toronto Center
01:18AM 43.2167 -79.6333 36° Northeast 100 115 6,400 600 Climbing Toronto Center
01:19AM 43.2333 -79.6167 36° Northeast 100 115 7,000 300 Climbing Toronto Center
01:20AM 43.2500 -79.5667 65° Northeast 120 138 7,100  Climbing Toronto Center
01:21AM 43.2833 -79.5167 48° Northeast 150 173 7,100  Level Toronto Center
01:22AM 43.3000 -79.4667 65° Northeast 150 173 7,100  Level Toronto Center
01:23AM 43.3167 -79.4000 71° East 160 184 7,100  Level Toronto Center
01:24AM 43.3500 -79.3500 47° Northeast 160 184 7,100  Level Toronto Center
01:25AM 43.3667 -79.3167 55° Northeast 160 184 7,100  Level Toronto Center
01:26AM 43.4000 -79.2667 47° Northeast 160 184 7,100  Level Toronto Center
01:27AM 43.4167 -79.2167 65° Northeast 160 184 7,100  Level Toronto Center
01:28AM 43.4333 -79.1500 71° East 160 184 7,100  Level Toronto Center
01:29AM 43.4667 -79.1000 47° Northeast 160 184 7,100  Level Toronto Center
01:30AM 43.4833 -79.0667 55° Northeast 160 184 7,100  Level Toronto Center
01:31AM 43.5167 -79.0167 47° Northeast 160 184 7,100  Level Toronto Center
01:32AM 43.5333 -78.9667 65° Northeast 160 184 7,100  Level Toronto Center
01:33AM 43.5667 -78.9000 55° Northeast 160 184 7,100  Level Toronto Center
01:34AM 43.5833 -78.8500 65° Northeast 160 184 7,100  Level Toronto Center
01:35AM 43.6167 -78.8000 47° Northeast 160 184 7,100  Level Toronto Center
01:36AM 43.6333 -78.7333 71° East 160 184 7,100  Level Toronto Center
01:37AM 43.6667 -78.6833 47° Northeast 160 184 7,100  Level Toronto Center
01:38AM 43.6833 -78.6333 65° Northeast 160 184 7,100  Level Toronto Center
01:39AM 43.7167 -78.6000 36° Northeast 160 184 7,100  Level Toronto Center
01:40AM 43.7333 -78.5500 65° Northeast 160 184 7,100  Level Toronto Center
01:41AM 43.7500 -78.4833 71° East 160 184 7,100  Level Toronto Center
01:42AM 43.7667 -78.4333 65° Northeast 160 184 7,100  Level Toronto Center
01:43AM 43.8000 -78.3833 47° Northeast 160 184 7,100  Level Toronto Center
01:44AM 43.8167 -78.3167 71° East 170 196 7,100  Level Toronto Center
01:45AM 43.8500 -78.2667 47° Northeast 170 196 7,100  Level Toronto Center
01:46AM 43.8667 -78.2167 65° Northeast 170 196 7,100  Level Toronto Center
01:47AM 43.9000 -78.1500 55° Northeast 170 196 7,100  Level Toronto Center
01:48AM 43.9167 -78.1000 65° Northeast 170 196 7,100  Level Toronto Center
01:49AM 43.9500 -78.0500 47° Northeast 170 196 7,100  Level Toronto Center
01:50AM 43.9667 -77.9833 71° East 170 196 7,100  Level Toronto Center
01:51AM 44.0000 -77.9333 47° Northeast 170 196 7,100  Level Toronto Center
01:52AM 44.0167 -77.9000 55° Northeast 170 196 7,100  Level Toronto Center
01:53AM 44.0500 -77.8167 61° Northeast 170 196 7,100  Level Toronto Center
01:54AM 44.0667 -77.7833 55° Northeast 170 196 7,100  Level Toronto Center
01:55AM 44.1000 -77.7333 47° Northeast 160 184 7,100  Level Toronto Center
01:56AM 44.1167 -77.6833 65° Northeast 160 184 7,100 -60 Level Toronto Center
01:57AM 44.1500 -77.6167 55° Northeast 160 184 7,000 -60 Descending Toronto Center
01:58AM 44.1667 -77.5667 65° Northeast 170 196 7,000  Level Toronto Center
02:00AM 44.2167 -77.4500 59° Northeast 170 196 7,000  Level Toronto Center
02:01AM 44.2500 -77.4000 47° Northeast 170 196 7,000  Level Toronto Center
02:02AM 44.2667 -77.3500 65° Northeast 170 196 7,000  Level Toronto Center
02:03AM 44.2833 -77.2833 71° East 160 184 7,000  Level Toronto Center
02:04AM 44.3167 -77.2333 47° Northeast 170 196 7,000  Level Toronto Center
02:05AM 44.3333 -77.1833 65° Northeast 170 196 7,000  Level Toronto Center
02:06AM 44.3667 -77.1167 55° Northeast 170 196 7,000  Level Toronto Center
02:07AM 44.3833 -77.0667 65° Northeast 170 196 7,000  Level Toronto Center
02:08AM 44.4167 -77.0167 47° Northeast 160 184 7,000  Level Toronto Center
02:09AM 44.4333 -76.9500 71° East 160 184 7,000  Level Toronto Center
02:10AM 44.4500 -76.9000 65° Northeast 160 184 7,000  Level Toronto Center
02:11AM 44.4833 -76.8500 47° Northeast 160 184 7,000  Level Toronto Center
02:12AM 44.5000 -76.8000 65° Northeast 160 184 7,000  Level Toronto Center
02:13AM 44.5333 -76.7500 47° Northeast 160 184 7,000  Level Toronto Center
02:14AM 44.5500 -76.7000 65° Northeast 160 184 7,000  Level Toronto Center
02:15AM 44.5667 -76.6333 71° East 160 184 7,000  Level Toronto Center
02:16AM 44.5833 -76.5833 65° Northeast 160 184 7,000  Level Toronto Center
02:17AM 44.6167 -76.5333 47° Northeast 150 173 7,000  Level Toronto Center
02:18AM 44.6333 -76.5000 55° Northeast 160 184 7,000  Level Toronto Center
02:19AM 44.6500 -76.4500 65° Northeast 150 173 7,000  Level Toronto Center
02:20AM 44.6833 -76.4000 47° Northeast 150 173 7,000  Level Toronto Center
02:21AM 44.7000 -76.3500 65° Northeast 150 173 7,100  Climbing Toronto Center
02:22AM 44.7333 -76.2833 55° Northeast 150 173 7,100  Level Toronto Center
02:23AM 44.7500 -76.2333 65° Northeast 150 173 7,100  Level Toronto Center
02:24AM 44.7667 -76.1833 65° Northeast 150 173 7,100  Level Toronto Center
02:25AM 44.8000 -76.1333 47° Northeast 150 173 7,100  Level Toronto Center
02:26AM 44.8167 -76.0833 65° Northeast 150 173 7,100  Level Toronto Center
02:27AM 44.8333 -76.0333 65° Northeast 150 173 7,100  Level Toronto Center
02:28AM 44.8500 -75.9833 65° Northeast 150 173 7,100  Level Toronto Center
02:29AM 44.8667 -75.9167 71° East 150 173 7,100  Level Toronto Center
02:30AM 44.9000 -75.8667 47° Northeast 160 184 7,100  Level Toronto Center
02:31AM 44.9167 -75.8167 65° Northeast 150 173 7,100 -60 Level Toronto Center
02:32AM 44.9500 -75.7667 47° Northeast 160 184 7,000 -60 Descending Toronto Center
02:33AM 44.9667 -75.7167 65° Northeast 160 184 7,000  Level Toronto Center
02:34AM 45.0000 -75.6667 47° Northeast 160 184 7,000  Level Toronto Center
02:35AM 45.0167 -75.6000 71° East 150 173 7,000  Level Toronto Center
02:36AM 45.0167 -75.5500 90° East 150 173 7,000  Level Toronto Center
02:37AM 45.0500 -75.5000 47° Northeast 150 173 7,000  Level Toronto Center
02:38AM 45.0667 -75.4667 55° Northeast 150 173 7,000  Level Montreal Center
02:39AM 45.1000 -75.4167 47° Northeast 150 173 7,000  Level Montreal Center
02:40AM 45.1167 -75.3667 65° Northeast 150 173 7,000  Level Montreal Center
02:41AM 45.1333 -75.3333 55° Northeast 150 173 7,000  Level Montreal Center
02:42AM 45.1500 -75.2833 65° Northeast 150 173 7,000  Level Montreal Center
02:43AM 45.1833 -75.2000 60° Northeast 150 173 7,000  Level Montreal Center
02:44AM 45.2000 -75.1667 55° Northeast 150 173 7,000  Level Montreal Center
02:45AM 45.2167 -75.1167 65° Northeast 150 173 7,000  Level Montreal Center
02:46AM 45.2500 -75.0667 47° Northeast 150 173 7,000  Level Montreal Center
02:48AM 45.2833 -74.9333 70° East 160 184 7,000  Level Toronto Center
02:49AM 45.3167 -74.8833 47° Northeast 160 184 7,000  Level Toronto Center
02:50AM 45.3333 -74.8167 70° East 160 184 7,000  Level Toronto Center
02:51AM 45.3500 -74.7667 65° Northeast 160 184 7,000 -180 Level Toronto Center
02:52AM 45.3833 -74.7167 46° Northeast 160 184 6,700 -420 Descending Toronto Center
02:53AM 45.4000 -74.6667 65° Northeast 170 196 6,200 -480 Descending Toronto Center
02:54AM 45.4167 -74.6000 70° East 170 196 5,800 -480 Descending Toronto Center
02:55AM 45.4500 -74.5500 46° Northeast 160 184 5,300 -480 Descending Toronto Center
02:56AM 45.4667 -74.5000 65° Northeast 160 184 4,900 -540 Descending Toronto Center
02:57AM 45.5000 -74.4500 46° Northeast 160 184 4,300 -540 Descending Toronto Center
02:58AM 45.5167 -74.3667 74° East 170 196 3,900 -420 Descending Toronto Center
02:59AM 45.5167 -74.3167 90° East 170 196 3,500 -420 Descending Toronto Center
03:00AM 45.5500 -74.2667 46° Northeast 170 196 3,100 -300 Descending Toronto Center
03:01AM 45.5667 -74.2000 70° East 160 184 2,900 -240 Descending Toronto Center
03:02AM 45.5833 -74.1500 65° Northeast 160 184 2,700 -420 Descending Toronto Center
03:02AM 45.6000 -74.1667 325° Northwest 160 184 2,500 -600 Descending Montreal Center
03:03AM 45.6167 -74.1000 70° East 160 184 1,900 -780 Descending Montreal Center
03:04AM 45.6333 -74.0500 64° Northeast 150 173 1,000 -720 Descending Montreal Center
03:05AM 45.6667 -74.0333 19° North 120 138 500 -540 Descending Montreal Center